<?xml version="1.0" encoding="UTF-8" standalone="no" ?>
<gpx xmlns="http://www.topografix.com/GPX/1/1" xmlns:xsi="http://www.w3.org/2001/XMLSchema-instance" xsi:schemaLocation="http://www.topografix.com/GPX/1/1 http://www.topografix.com/GPX/1/1/gpx.xsd" version="1.1" creator="VisuGPX - https://www.visugpx.com">
  <metadata>
    <name>Gravel départ Quimperlé</name>
  </metadata>
  <trk>
    <name><![CDATA[Gravel départ Quimperlé_1]]></name>
    <trkseg>
      <trkpt lat="47.70247" lon="-3.42181">
        <ele>11.3</ele>
        <time>2021-11-16T12:43:48.000Z</time>
      </trkpt>
      <trkpt lat="47.70252" lon="-3.42196">
        <ele>12.9</ele>
        <time>2021-11-16T12:43:51.000Z</time>
      </trkpt>
      <trkpt lat="47.70263" lon="-3.42204">
        <ele>10.9</ele>
        <time>2021-11-16T12:43:54.000Z</time>
      </trkpt>
      <trkpt lat="47.70271" lon="-3.42213">
        <ele>13</ele>
        <time>2021-11-16T12:43:57.000Z</time>
      </trkpt>
      <trkpt lat="47.7028" lon="-3.42214">
        <ele>12.7</ele>
        <time>2021-11-16T12:44:00.000Z</time>
      </trkpt>
      <trkpt lat="47.70289" lon="-3.42218">
        <ele>12.3</ele>
        <time>2021-11-16T12:44:03.000Z</time>
      </trkpt>
      <trkpt lat="47.703" lon="-3.42224">
        <ele>11.9</ele>
        <time>2021-11-16T12:44:06.000Z</time>
      </trkpt>
      <trkpt lat="47.70308" lon="-3.42236">
        <ele>11.8</ele>
        <time>2021-11-16T12:44:09.000Z</time>
      </trkpt>
      <trkpt lat="47.70315" lon="-3.42251">
        <ele>11.8</ele>
        <time>2021-11-16T12:44:12.000Z</time>
      </trkpt>
      <trkpt lat="47.70324" lon="-3.42266">
        <ele>13.4</ele>
        <time>2021-11-16T12:44:15.000Z</time>
      </trkpt>
      <trkpt lat="47.70335" lon="-3.42274">
        <ele>12.2</ele>
        <time>2021-11-16T12:44:18.000Z</time>
      </trkpt>
      <trkpt lat="47.70343" lon="-3.42276">
        <ele>12.8</ele>
        <time>2021-11-16T12:44:21.000Z</time>
      </trkpt>
      <trkpt lat="47.70351" lon="-3.42283">
        <ele>11.6</ele>
        <time>2021-11-16T12:44:24.000Z</time>
      </trkpt>
      <trkpt lat="47.70361" lon="-3.42291">
        <ele>12.5</ele>
        <time>2021-11-16T12:44:27.000Z</time>
      </trkpt>
      <trkpt lat="47.70373" lon="-3.423">
        <ele>12.3</ele>
        <time>2021-11-16T12:44:30.000Z</time>
      </trkpt>
      <trkpt lat="47.70386" lon="-3.4231">
        <ele>12.6</ele>
        <time>2021-11-16T12:44:33.000Z</time>
      </trkpt>
      <trkpt lat="47.70398" lon="-3.4232">
        <ele>14</ele>
        <time>2021-11-16T12:44:36.000Z</time>
      </trkpt>
      <trkpt lat="47.70411" lon="-3.42331">
        <ele>13.2</ele>
        <time>2021-11-16T12:44:39.000Z</time>
      </trkpt>
      <trkpt lat="47.70424" lon="-3.4234">
        <ele>11.4</ele>
        <time>2021-11-16T12:44:42.000Z</time>
      </trkpt>
      <trkpt lat="47.70439" lon="-3.42344">
        <ele>11.7</ele>
        <time>2021-11-16T12:44:45.000Z</time>
      </trkpt>
      <trkpt lat="47.70453" lon="-3.42358">
        <ele>11.3</ele>
        <time>2021-11-16T12:44:48.000Z</time>
      </trkpt>
      <trkpt lat="47.70468" lon="-3.42376">
        <ele>9.8</ele>
        <time>2021-11-16T12:44:51.000Z</time>
      </trkpt>
      <trkpt lat="47.70479" lon="-3.42397">
        <ele>9.4</ele>
        <time>2021-11-16T12:44:54.000Z</time>
      </trkpt>
      <trkpt lat="47.70486" lon="-3.42418">
        <ele>10.7</ele>
        <time>2021-11-16T12:44:57.000Z</time>
      </trkpt>
      <trkpt lat="47.70494" lon="-3.42439">
        <ele>10.6</ele>
        <time>2021-11-16T12:45:00.000Z</time>
      </trkpt>
      <trkpt lat="47.70498" lon="-3.4246">
        <ele>11.8</ele>
        <time>2021-11-16T12:45:03.000Z</time>
      </trkpt>
      <trkpt lat="47.70502" lon="-3.42483">
        <ele>10.3</ele>
        <time>2021-11-16T12:45:06.000Z</time>
      </trkpt>
      <trkpt lat="47.70507" lon="-3.42505">
        <ele>10.9</ele>
        <time>2021-11-16T12:45:09.000Z</time>
      </trkpt>
      <trkpt lat="47.70511" lon="-3.42529">
        <ele>10.2</ele>
        <time>2021-11-16T12:45:12.000Z</time>
      </trkpt>
      <trkpt lat="47.70514" lon="-3.42552">
        <ele>10.6</ele>
        <time>2021-11-16T12:45:15.000Z</time>
      </trkpt>
      <trkpt lat="47.70518" lon="-3.42571">
        <ele>12.5</ele>
        <time>2021-11-16T12:45:18.000Z</time>
      </trkpt>
      <trkpt lat="47.70523" lon="-3.4258">
        <ele>12.5</ele>
        <time>2021-11-16T12:45:21.000Z</time>
      </trkpt>
      <trkpt lat="47.70527" lon="-3.4258">
        <ele>12.3</ele>
        <time>2021-11-16T12:45:24.000Z</time>
      </trkpt>
      <trkpt lat="47.70532" lon="-3.42584">
        <ele>11.8</ele>
        <time>2021-11-16T12:45:27.000Z</time>
      </trkpt>
      <trkpt lat="47.70541" lon="-3.42587">
        <ele>11.2</ele>
        <time>2021-11-16T12:45:30.000Z</time>
      </trkpt>
      <trkpt lat="47.7055" lon="-3.4259">
        <ele>12</ele>
        <time>2021-11-16T12:45:33.000Z</time>
      </trkpt>
      <trkpt lat="47.70554" lon="-3.42598">
        <ele>12.4</ele>
        <time>2021-11-16T12:45:36.000Z</time>
      </trkpt>
      <trkpt lat="47.70552" lon="-3.42614">
        <ele>10.9</ele>
        <time>2021-11-16T12:45:39.000Z</time>
      </trkpt>
      <trkpt lat="47.70546" lon="-3.42631">
        <ele>10</ele>
        <time>2021-11-16T12:45:42.000Z</time>
      </trkpt>
      <trkpt lat="47.7054" lon="-3.42651">
        <ele>9.9</ele>
        <time>2021-11-16T12:45:45.000Z</time>
      </trkpt>
      <trkpt lat="47.70536" lon="-3.42672">
        <ele>11.2</ele>
        <time>2021-11-16T12:45:48.000Z</time>
      </trkpt>
      <trkpt lat="47.70533" lon="-3.42693">
        <ele>10.2</ele>
        <time>2021-11-16T12:45:51.000Z</time>
      </trkpt>
      <trkpt lat="47.7053" lon="-3.42713">
        <ele>10.4</ele>
        <time>2021-11-16T12:45:54.000Z</time>
      </trkpt>
      <trkpt lat="47.70527" lon="-3.42731">
        <ele>10.5</ele>
        <time>2021-11-16T12:45:57.000Z</time>
      </trkpt>
      <trkpt lat="47.70524" lon="-3.42751">
        <ele>10.4</ele>
        <time>2021-11-16T12:46:00.000Z</time>
      </trkpt>
      <trkpt lat="47.70522" lon="-3.42772">
        <ele>10.9</ele>
        <time>2021-11-16T12:46:03.000Z</time>
      </trkpt>
      <trkpt lat="47.70519" lon="-3.42793">
        <ele>10.6</ele>
        <time>2021-11-16T12:46:06.000Z</time>
      </trkpt>
      <trkpt lat="47.70517" lon="-3.42815">
        <ele>9.9</ele>
        <time>2021-11-16T12:46:09.000Z</time>
      </trkpt>
      <trkpt lat="47.70517" lon="-3.42839">
        <ele>9.9</ele>
        <time>2021-11-16T12:46:12.000Z</time>
      </trkpt>
      <trkpt lat="47.70515" lon="-3.42864">
        <ele>11.3</ele>
        <time>2021-11-16T12:46:15.000Z</time>
      </trkpt>
      <trkpt lat="47.70511" lon="-3.42888">
        <ele>10.4</ele>
        <time>2021-11-16T12:46:18.000Z</time>
      </trkpt>
      <trkpt lat="47.70508" lon="-3.42913">
        <ele>10</ele>
        <time>2021-11-16T12:46:21.000Z</time>
      </trkpt>
      <trkpt lat="47.70504" lon="-3.42938">
        <ele>11.1</ele>
        <time>2021-11-16T12:46:24.000Z</time>
      </trkpt>
      <trkpt lat="47.70501" lon="-3.42963">
        <ele>9.5</ele>
        <time>2021-11-16T12:46:27.000Z</time>
      </trkpt>
      <trkpt lat="47.70498" lon="-3.42989">
        <ele>8.2</ele>
        <time>2021-11-16T12:46:30.000Z</time>
      </trkpt>
      <trkpt lat="47.70494" lon="-3.43014">
        <ele>9.8</ele>
        <time>2021-11-16T12:46:33.000Z</time>
      </trkpt>
      <trkpt lat="47.7049" lon="-3.43039">
        <ele>8.7</ele>
        <time>2021-11-16T12:46:36.000Z</time>
      </trkpt>
      <trkpt lat="47.70487" lon="-3.43064">
        <ele>9.9</ele>
        <time>2021-11-16T12:46:39.000Z</time>
      </trkpt>
      <trkpt lat="47.70482" lon="-3.43087">
        <ele>9.8</ele>
        <time>2021-11-16T12:46:42.000Z</time>
      </trkpt>
      <trkpt lat="47.70478" lon="-3.43111">
        <ele>9.5</ele>
        <time>2021-11-16T12:46:45.000Z</time>
      </trkpt>
      <trkpt lat="47.70476" lon="-3.43135">
        <ele>9.7</ele>
        <time>2021-11-16T12:46:48.000Z</time>
      </trkpt>
      <trkpt lat="47.70476" lon="-3.43156">
        <ele>9.8</ele>
        <time>2021-11-16T12:46:51.000Z</time>
      </trkpt>
      <trkpt lat="47.70472" lon="-3.4317">
        <ele>10.2</ele>
        <time>2021-11-16T12:46:54.000Z</time>
      </trkpt>
      <trkpt lat="47.7046" lon="-3.43164">
        <ele>12.4</ele>
        <time>2021-11-16T12:46:57.000Z</time>
      </trkpt>
      <trkpt lat="47.70452" lon="-3.43148">
        <ele>12.9</ele>
        <time>2021-11-16T12:47:00.000Z</time>
      </trkpt>
      <trkpt lat="47.70445" lon="-3.4313">
        <ele>12.9</ele>
        <time>2021-11-16T12:47:03.000Z</time>
      </trkpt>
      <trkpt lat="47.70438" lon="-3.43114">
        <ele>11.8</ele>
        <time>2021-11-16T12:47:06.000Z</time>
      </trkpt>
      <trkpt lat="47.7043" lon="-3.43104">
        <ele>12.1</ele>
        <time>2021-11-16T12:47:09.000Z</time>
      </trkpt>
      <trkpt lat="47.7042" lon="-3.43114">
        <ele>11.5</ele>
        <time>2021-11-16T12:47:12.000Z</time>
      </trkpt>
      <trkpt lat="47.70412" lon="-3.43124">
        <ele>12.1</ele>
        <time>2021-11-16T12:47:15.000Z</time>
      </trkpt>
      <trkpt lat="47.70402" lon="-3.43122">
        <ele>11.2</ele>
        <time>2021-11-16T12:47:18.000Z</time>
      </trkpt>
      <trkpt lat="47.70393" lon="-3.43118">
        <ele>12.7</ele>
        <time>2021-11-16T12:47:21.000Z</time>
      </trkpt>
      <trkpt lat="47.70388" lon="-3.4313">
        <ele>12.5</ele>
        <time>2021-11-16T12:47:24.000Z</time>
      </trkpt>
      <trkpt lat="47.70385" lon="-3.43143">
        <ele>14</ele>
        <time>2021-11-16T12:47:27.000Z</time>
      </trkpt>
      <trkpt lat="47.70381" lon="-3.43157">
        <ele>14.9</ele>
        <time>2021-11-16T12:47:30.000Z</time>
      </trkpt>
      <trkpt lat="47.70378" lon="-3.43172">
        <ele>14.8</ele>
        <time>2021-11-16T12:47:33.000Z</time>
      </trkpt>
      <trkpt lat="47.70375" lon="-3.43187">
        <ele>14.4</ele>
        <time>2021-11-16T12:47:36.000Z</time>
      </trkpt>
      <trkpt lat="47.70377" lon="-3.43202">
        <ele>15.2</ele>
        <time>2021-11-16T12:47:39.000Z</time>
      </trkpt>
      <trkpt lat="47.70379" lon="-3.43216">
        <ele>15.4</ele>
        <time>2021-11-16T12:47:42.000Z</time>
      </trkpt>
      <trkpt lat="47.70378" lon="-3.43225">
        <ele>16</ele>
        <time>2021-11-16T12:47:45.000Z</time>
      </trkpt>
      <trkpt lat="47.70371" lon="-3.43222">
        <ele>15.1</ele>
        <time>2021-11-16T12:47:48.000Z</time>
      </trkpt>
      <trkpt lat="47.70362" lon="-3.4322">
        <ele>16.8</ele>
        <time>2021-11-16T12:47:51.000Z</time>
      </trkpt>
      <trkpt lat="47.70355" lon="-3.43218">
        <ele>16.2</ele>
        <time>2021-11-16T12:47:54.000Z</time>
      </trkpt>
      <trkpt lat="47.70346" lon="-3.43216">
        <ele>16.6</ele>
        <time>2021-11-16T12:47:57.000Z</time>
      </trkpt>
      <trkpt lat="47.70334" lon="-3.43213">
        <ele>14.8</ele>
        <time>2021-11-16T12:48:00.000Z</time>
      </trkpt>
      <trkpt lat="47.7032" lon="-3.43201">
        <ele>13.3</ele>
        <time>2021-11-16T12:48:03.000Z</time>
      </trkpt>
      <trkpt lat="47.70304" lon="-3.43189">
        <ele>14.7</ele>
        <time>2021-11-16T12:48:06.000Z</time>
      </trkpt>
      <trkpt lat="47.70288" lon="-3.43178">
        <ele>12.2</ele>
        <time>2021-11-16T12:48:09.000Z</time>
      </trkpt>
      <trkpt lat="47.70272" lon="-3.43165">
        <ele>10.4</ele>
        <time>2021-11-16T12:48:12.000Z</time>
      </trkpt>
      <trkpt lat="47.70255" lon="-3.43152">
        <ele>10.8</ele>
        <time>2021-11-16T12:48:15.000Z</time>
      </trkpt>
      <trkpt lat="47.70239" lon="-3.43145">
        <ele>11.1</ele>
        <time>2021-11-16T12:48:18.000Z</time>
      </trkpt>
      <trkpt lat="47.70225" lon="-3.43149">
        <ele>11.9</ele>
        <time>2021-11-16T12:48:21.000Z</time>
      </trkpt>
      <trkpt lat="47.70213" lon="-3.43161">
        <ele>11.2</ele>
        <time>2021-11-16T12:48:24.000Z</time>
      </trkpt>
      <trkpt lat="47.70205" lon="-3.43181">
        <ele>11.3</ele>
        <time>2021-11-16T12:48:27.000Z</time>
      </trkpt>
    </trkseg>
  </trk>
</gpx>